Savage, Minnesota
Current Conditions -  °F | °C
As of 2:53 PM on Tuesday 21 Oct 2014 (Local Time) from KFCM Reporting Station
Clear Clear  
Wind Chill: 58°   Ceiling: Unl
Heat Index: 58°   Visibility: 10mi
Dew Point: 41°   Wind: 8mph
Humidity: 53%   Direction: 130°SE
Pressure: 30.13"   Gusts: NA
Location:  44.76°N, 93.35°W
Report Text: KFCM 211953Z 13007KT 10SM CLR 14/05 A3013 RMK AO2 SLP208 T01440050
Loading
Personal Weather Stations






























Interactive Weather Map
Tropical Storm Tracking
New forecast layout! Learn more

10-Day Weather Forecast

Advertisements
Track Severe Weather on mobile